createdAt,value
2019-05-13T00:01:43.597Z,8.20
2019-05-13T00:04:14.107Z,7.00
2019-05-13T00:06:53.430Z,11.08
2019-05-13T00:09:14.606Z,10.48
2019-05-13T00:11:44.864Z,8.77
2019-05-13T00:14:14.201Z,7.67
2019-05-13T00:16:44.852Z,14.58
2019-05-13T00:19:15.463Z,10.55
2019-05-13T00:21:44.769Z,10.35
2019-05-13T00:24:14.082Z,16.42
2019-05-13T00:26:44.428Z,7.42
2019-05-13T00:29:14.347Z,15.53
2019-05-13T00:31:43.967Z,13.32
2019-05-13T00:34:14.364Z,10.48
2019-05-13T00:36:44.694Z,15.53
2019-05-13T00:39:15.384Z,14.23
2019-05-13T00:41:45.917Z,9.95
2019-05-13T00:44:15.228Z,14.45
2019-05-13T00:46:44.911Z,8.63
2019-05-13T00:49:14.259Z,12.55
2019-05-13T00:51:44.484Z,16.40
2019-05-13T00:54:14.033Z,11.80
2019-05-13T00:56:43.702Z,12.35
2019-05-13T00:59:14.154Z,15.00
2019-05-13T01:01:44.174Z,14.67
2019-05-13T01:04:14.305Z,5.95
2019-05-13T01:06:43.809Z,9.47
2019-05-13T01:09:14.525Z,17.80
2019-05-13T01:14:14.346Z,14.23
2019-05-13T01:19:14.341Z,8.83
2019-05-13T01:21:44.423Z,15.32
2019-05-13T01:24:14.385Z,13.18
2019-05-13T01:26:44.086Z,8.40
2019-05-13T01:29:13.647Z,9.65
2019-05-13T01:31:43.567Z,13.90
2019-05-13T01:34:14.404Z,14.63
2019-05-13T01:36:45.200Z,13.00
2019-05-13T01:39:14.634Z,12.90
2019-05-13T01:41:44.005Z,9.33
2019-05-13T01:44:13.982Z,14.20
2019-05-13T01:46:43.878Z,19.60
2019-05-13T01:49:13.610Z,16.50
2019-05-13T01:51:44.152Z,10.70
2019-05-13T01:54:14.238Z,15.63
2019-05-13T01:56:44.155Z,20.97
2019-05-13T01:59:15.188Z,13.72
2019-05-13T02:01:44.629Z,11.83
2019-05-13T02:04:14.323Z,14.75
2019-05-13T02:06:44.672Z,9.20
2019-05-13T02:09:14.354Z,9.68
2019-05-13T02:11:46.502Z,13.68
2019-05-13T02:14:14.703Z,11.40
2019-05-13T02:16:44.569Z,17.65
2019-05-13T02:19:14.369Z,11.25
2019-05-13T02:21:44.038Z,8.63
2019-05-13T02:24:14.467Z,15.20
2019-05-13T02:26:43.999Z,7.90
2019-05-13T02:29:14.355Z,19.57
2019-05-13T02:31:51.073Z,10.93
2019-05-13T02:37:52.484Z,15.70
2019-05-13T02:40:22.679Z,11.00
2019-05-13T02:42:52.260Z,18.82
2019-05-13T02:45:22.753Z,17.43
2019-05-13T02:47:52.284Z,12.83
2019-05-13T02:50:22.504Z,10.08
2019-05-13T02:52:53.125Z,12.28
2019-05-13T02:55:23.554Z,13.70
2019-05-13T02:57:53.964Z,16.05
2019-05-13T03:00:26.876Z,11.75
2019-05-13T03:02:56.166Z,18.15
2019-05-13T03:05:25.485Z,8.43
2019-05-13T03:07:54.809Z,11.00
2019-05-13T03:10:24.146Z,17.07
2019-05-13T03:12:54.038Z,8.36
2019-05-13T03:15:25.783Z,11.68
2019-05-13T03:18:05.124Z,11.80
2019-05-13T03:20:35.554Z,17.62
2019-05-13T03:23:04.918Z,13.65
2019-05-13T03:25:34.254Z,15.65
2019-05-13T03:28:03.648Z,13.88
2019-05-13T03:30:35.250Z,15.78
2019-05-13T03:33:10.987Z,15.90
2019-05-13T03:35:37.066Z,12.93
2019-05-13T03:38:06.100Z,15.32
2019-05-13T03:40:37.319Z,14.93
2019-05-13T03:45:38.290Z,15.03
2019-05-13T03:48:08.603Z,15.27
2019-05-13T03:50:37.947Z,20.12
2019-05-13T03:53:07.296Z,19.00
2019-05-13T03:55:36.921Z,17.00
2019-05-13T03:58:06.318Z,16.75
2019-05-13T04:00:35.658Z,13.03
2019-05-13T04:03:05.080Z,15.05
2019-05-13T04:05:34.449Z,17.65
2019-05-13T04:08:03.808Z,17.35
2019-05-13T04:10:33.648Z,17.37
2019-05-13T04:13:04.035Z,17.87
2019-05-13T04:15:33.584Z,12.98
2019-05-13T04:18:03.145Z,11.45
2019-05-13T04:20:33.456Z,15.78
2019-05-13T04:23:03.272Z,20.90
2019-05-13T04:25:32.747Z,17.87
2019-05-13T04:28:03.164Z,14.98
2019-05-13T04:33:03.072Z,23.35
2019-05-13T04:35:33.258Z,22.98
2019-05-13T04:38:04.250Z,15.78
2019-05-13T04:40:34.007Z,20.50
2019-05-13T04:43:03.371Z,19.07
2019-05-13T04:45:33.231Z,17.40
2019-05-13T04:48:03.927Z,17.15
2019-05-13T04:50:34.313Z,14.45
2019-05-13T04:53:03.959Z,14.15
2019-05-13T04:55:33.531Z,17.55
2019-05-13T04:58:03.768Z,18.65
2019-05-13T05:01:01.969Z,18.87
2019-05-13T05:03:44.679Z,24.98
2019-05-13T05:06:42.408Z,19.60
2019-05-13T05:12:16.974Z,19.02
2019-05-13T05:14:58.558Z,17.33
2019-05-13T05:17:57.083Z,15.05
2019-05-13T05:20:38.706Z,9.38
2019-05-13T05:23:14.382Z,15.33
2019-05-13T05:25:53.093Z,18.02
2019-05-13T05:28:31.972Z,15.20
2019-05-13T05:31:16.860Z,16.88
2019-05-13T05:33:52.156Z,20.43
2019-05-13T05:36:54.534Z,19.00
2019-05-13T05:39:27.538Z,15.10
2019-05-13T05:41:58.305Z,15.28
2019-05-13T05:44:32.368Z,13.90
2019-05-13T05:47:04.002Z,13.30
2019-05-13T05:49:33.488Z,23.98
2019-05-13T05:52:06.031Z,21.37
2019-05-13T05:54:39.267Z,19.48
2019-05-13T05:57:11.901Z,13.98
2019-05-13T05:59:42.658Z,18.02
2019-05-13T06:02:12.333Z,16.85
2019-05-13T06:04:43.282Z,21.85
2019-05-13T06:07:13.827Z,16.35
2019-05-13T06:09:43.110Z,23.30
2019-05-13T06:12:12.939Z,16.10
2019-05-13T06:14:42.795Z,13.72
2019-05-13T06:17:12.198Z,13.67
2019-05-13T06:19:42.011Z,17.07
2019-05-13T06:22:12.498Z,24.72
2019-05-13T06:24:42.349Z,19.05
2019-05-13T06:27:12.763Z,14.38
2019-05-13T06:29:42.533Z,20.88
2019-05-13T06:32:21.215Z,11.77
2019-05-13T06:34:43.065Z,14.28
2019-05-13T06:37:12.396Z,12.93
2019-05-13T06:39:42.112Z,15.08
2019-05-13T06:42:11.770Z,15.38
2019-05-13T06:44:42.090Z,14.93
2019-05-13T06:47:11.713Z,15.13
2019-05-13T06:49:42.798Z,16.65
2019-05-13T06:52:12.991Z,11.95
2019-05-13T06:54:42.313Z,15.55
2019-05-13T06:57:13.463Z,11.43
2019-05-13T06:59:42.755Z,17.27
2019-05-13T07:02:12.547Z,11.60
2019-05-13T07:04:41.938Z,14.00
2019-05-13T07:07:16.719Z,16.73
2019-05-13T07:09:42.803Z,13.72
2019-05-13T07:12:12.229Z,13.00
2019-05-13T07:14:41.530Z,13.68
2019-05-13T07:17:12.368Z,13.88
2019-05-13T07:19:41.964Z,14.63
2019-05-13T07:22:11.748Z,11.88
2019-05-13T07:24:41.599Z,14.20
2019-05-13T07:27:12.281Z,11.55
2019-05-13T07:29:42.521Z,17.17
2019-05-13T07:32:12.148Z,17.50
2019-05-13T07:34:44.024Z,11.97
2019-05-13T07:37:12.591Z,14.23
2019-05-13T07:39:42.624Z,15.90
2019-05-13T07:42:12.470Z,10.90
2019-05-13T07:44:41.884Z,12.55
2019-05-13T07:47:11.583Z,14.45
2019-05-13T07:49:42.044Z,12.88
2019-05-13T07:52:12.006Z,12.00
2019-05-13T07:54:42.038Z,15.88
2019-05-13T07:57:12.252Z,10.73
2019-05-13T07:59:42.086Z,11.67
2019-05-13T08:02:12.350Z,11.00
2019-05-13T08:04:42.247Z,11.43
2019-05-13T08:07:12.211Z,10.68
2019-05-13T08:09:42.745Z,12.98
2019-05-13T08:12:14.519Z,10.55
2019-05-13T08:14:43.779Z,10.93
2019-05-13T08:17:13.353Z,9.75
2019-05-13T08:19:43.949Z,11.95
2019-05-13T08:22:13.430Z,11.88
2019-05-13T08:24:42.802Z,7.53
2019-05-13T08:27:13.004Z,7.33
2019-05-13T08:29:43.242Z,11.67
2019-05-13T08:32:13.465Z,10.57
2019-05-13T08:34:43.668Z,7.60
2019-05-13T08:37:13.889Z,11.30
2019-05-13T08:39:43.732Z,14.30
2019-05-13T08:42:19.466Z,12.23
2019-05-13T08:44:44.930Z,6.97
2019-05-13T08:47:14.302Z,13.00
2019-05-13T08:49:44.628Z,10.23
2019-05-13T08:52:14.696Z,8.16
2019-05-13T08:54:44.665Z,12.93
2019-05-13T08:57:14.805Z,10.18
2019-05-13T08:59:44.882Z,12.15
2019-05-13T09:02:15.086Z,11.05
2019-05-13T09:04:45.374Z,11.13
2019-05-13T09:07:15.756Z,12.33
2019-05-13T09:09:45.974Z,18.10
2019-05-13T09:12:28.469Z,9.18
2019-05-13T09:14:46.897Z,8.38
2019-05-13T09:17:16.203Z,16.23
2019-05-13T09:19:46.234Z,17.48
2019-05-13T09:22:16.465Z,14.07
2019-05-13T09:24:46.589Z,8.63
2019-05-13T09:27:16.691Z,9.23
2019-05-13T09:29:48.295Z,4.85
2019-05-13T09:32:17.582Z,10.63
2019-05-13T09:34:47.147Z,7.12
2019-05-13T09:37:22.385Z,18.00
2019-05-13T09:39:51.831Z,7.97
2019-05-13T09:42:21.746Z,6.78
2019-05-13T09:44:52.562Z,9.55
2019-05-13T09:49:51.130Z,6.70
2019-05-13T09:52:22.550Z,10.78
2019-05-13T09:54:52.439Z,33.78
2019-05-13T09:57:22.093Z,7.37
2019-05-13T09:59:52.429Z,6.42
2019-05-13T10:02:21.886Z,7.28
2019-05-13T10:04:51.969Z,11.48
2019-05-13T10:07:22.966Z,13.43
2019-05-13T10:09:52.405Z,7.72
2019-05-13T10:12:24.382Z,8.90
2019-05-13T10:14:52.951Z,6.87
2019-05-13T10:17:22.440Z,6.87
2019-05-13T10:19:52.150Z,7.00
2019-05-13T10:22:22.121Z,5.72
2019-05-13T10:24:52.551Z,5.42
2019-05-13T10:27:22.526Z,7.37
2019-05-13T10:29:52.289Z,5.67
2019-05-13T10:32:22.050Z,5.47
2019-05-13T10:34:53.335Z,6.50
2019-05-13T10:37:22.768Z,5.97
2019-05-13T10:39:52.065Z,7.03
2019-05-13T10:42:22.264Z,8.55
2019-05-13T10:44:52.300Z,5.77
2019-05-13T10:47:22.721Z,5.57
2019-05-13T10:49:52.614Z,8.13
2019-05-13T10:52:22.889Z,7.30
2019-05-13T10:54:52.846Z,6.57
2019-05-13T10:57:22.377Z,5.97
2019-05-13T10:59:52.932Z,6.20
2019-05-13T11:02:22.651Z,5.50
2019-05-13T11:04:53.079Z,4.77
2019-05-13T11:07:23.209Z,7.55
2019-05-13T11:09:53.827Z,4.83
2019-05-13T11:12:28.167Z,4.85
2019-05-13T11:14:55.483Z,5.03
2019-05-13T11:17:43.591Z,5.20
2019-05-13T11:19:55.989Z,5.47
2019-05-13T11:22:25.353Z,3.83
2019-05-13T11:24:54.689Z,4.35
2019-05-13T11:27:24.269Z,6.80
2019-05-13T11:29:54.527Z,4.05
2019-05-13T11:32:24.670Z,8.70
2019-05-13T11:34:54.721Z,5.65
2019-05-13T11:37:25.299Z,4.90
2019-05-13T11:39:55.120Z,6.97
2019-05-13T11:42:25.361Z,5.95
2019-05-13T11:44:55.431Z,5.37
2019-05-13T11:47:25.651Z,5.12
2019-05-13T11:49:55.877Z,3.87
2019-05-13T11:52:26.082Z,4.50
2019-05-13T11:54:56.200Z,4.85
2019-05-13T11:57:26.503Z,6.53
2019-05-13T11:59:56.591Z,7.40
2019-05-13T12:02:26.856Z,7.53
2019-05-13T12:04:57.018Z,7.05
2019-05-13T12:07:27.136Z,6.58
2019-05-13T12:09:57.351Z,4.50
2019-05-13T12:12:31.791Z,7.37
2019-05-13T12:17:33.290Z,10.00
2019-05-13T12:22:30.795Z,8.20
2019-05-13T12:25:02.119Z,5.10
2019-05-13T12:30:03.066Z,5.87
2019-05-13T12:32:32.473Z,6.12
2019-05-13T12:35:03.503Z,4.78
2019-05-13T12:37:34.219Z,5.20
2019-05-13T12:40:04.084Z,7.75
2019-05-13T12:42:33.947Z,7.42
2019-05-13T12:45:09.755Z,7.00
2019-05-13T12:47:35.483Z,6.22
2019-05-13T12:50:06.678Z,5.90
2019-05-13T12:52:36.375Z,5.08
2019-05-13T12:55:07.013Z,5.62
2019-05-13T12:57:36.369Z,5.10
2019-05-13T13:00:07.121Z,4.22
2019-05-13T13:02:36.719Z,5.10
2019-05-13T13:05:13.487Z,4.90
2019-05-13T13:07:41.278Z,5.70
2019-05-13T13:10:08.713Z,6.28
2019-05-13T13:12:38.084Z,5.90
2019-05-13T13:15:33.079Z,4.62
2019-05-13T13:17:41.477Z,5.25
2019-05-13T13:20:15.154Z,6.92
2019-05-13T13:22:42.188Z,7.67
2019-05-13T13:25:13.227Z,4.22
2019-05-13T13:28:09.852Z,4.87
2019-05-13T13:30:15.454Z,3.97
2019-05-13T13:32:45.766Z,5.45
2019-05-13T13:35:15.308Z,5.22
2019-05-13T13:37:45.782Z,2.95
2019-05-13T13:40:24.549Z,3.33
2019-05-13T13:42:46.987Z,10.05
2019-05-13T13:45:16.404Z,5.50
2019-05-13T13:47:46.049Z,3.52
2019-05-13T13:50:15.619Z,4.78
2019-05-13T13:52:45.650Z,6.40
2019-05-13T13:55:16.129Z,4.67
2019-05-13T13:57:45.811Z,3.17
2019-05-13T14:00:32.709Z,5.28
2019-05-13T14:02:46.626Z,3.42
2019-05-13T14:05:16.399Z,3.45
2019-05-13T14:07:04.842Z,10.53
2019-05-13T14:07:45.774Z,5.65
2019-05-13T14:10:15.439Z,4.65
2019-05-13T14:12:45.807Z,3.87
2019-05-13T14:15:15.309Z,5.20
2019-05-13T14:17:44.609Z,7.12
2019-05-13T14:20:14.661Z,4.28
2019-05-13T14:22:44.957Z,5.22
2019-05-13T14:25:14.375Z,3.10
2019-05-13T14:27:43.717Z,4.67
2019-05-13T14:30:14.847Z,4.90
2019-05-13T14:32:45.459Z,4.97
2019-05-13T14:35:14.874Z,4.30
2019-05-13T14:37:45.875Z,4.28
2019-05-13T14:40:15.830Z,4.35
2019-05-13T14:42:45.154Z,4.05
2019-05-13T14:45:14.834Z,3.37
2019-05-13T14:47:44.438Z,4.40
2019-05-13T14:50:14.997Z,3.37
2019-05-13T14:52:45.571Z,9.28
2019-05-13T14:55:15.040Z,7.62
2019-05-13T14:57:44.332Z,5.95
2019-05-13T15:00:14.097Z,7.22
2019-05-13T15:02:43.521Z,4.03
2019-05-13T15:05:12.934Z,4.03
2019-05-13T15:07:42.334Z,6.75
2019-05-13T15:10:11.958Z,5.92
2019-05-13T15:12:41.632Z,5.05
2019-05-13T15:15:12.698Z,7.08
2019-05-13T15:20:12.481Z,7.40
2019-05-13T15:22:42.564Z,5.45
2019-05-13T15:25:12.055Z,4.50
2019-05-13T15:27:42.119Z,6.37
2019-05-13T15:30:17.883Z,6.10
2019-05-13T15:32:44.390Z,5.30
2019-05-13T15:35:13.715Z,4.40
2019-05-13T15:37:43.007Z,5.28
2019-05-13T15:40:12.693Z,5.65
2019-05-13T15:42:42.040Z,7.17
2019-05-13T15:45:12.518Z,6.50
2019-05-13T15:47:42.037Z,6.87
2019-05-13T15:50:12.451Z,4.92
2019-05-13T15:52:43.327Z,3.17
2019-05-13T15:55:14.256Z,4.60
2019-05-13T15:57:43.777Z,4.92
2019-05-13T16:00:13.405Z,3.60
2019-05-13T16:02:42.729Z,3.72
2019-05-13T16:05:12.618Z,4.64
2019-05-13T16:07:42.688Z,10.70
2019-05-13T16:10:13.143Z,7.10
2019-05-13T16:12:42.960Z,4.92
2019-05-13T16:15:15.775Z,3.85
2019-05-13T16:17:45.073Z,9.13
2019-05-13T16:20:15.735Z,3.17
2019-05-13T16:22:45.104Z,10.27
2019-05-13T16:25:14.959Z,4.83
2019-05-13T16:27:44.256Z,3.47
2019-05-13T16:30:15.321Z,3.80
2019-05-13T16:32:47.999Z,6.93
2019-05-13T16:37:44.657Z,4.62
2019-05-13T16:40:14.862Z,6.44
2019-05-13T16:42:44.731Z,5.00
2019-05-13T16:45:14.977Z,5.10
2019-05-13T16:48:03.849Z,7.87
2019-05-13T16:50:16.236Z,4.47
2019-05-13T16:52:45.598Z,6.55
2019-05-13T16:55:15.693Z,7.37
2019-05-13T16:57:45.712Z,6.85
2019-05-13T17:00:16.059Z,2.62
2019-05-13T17:02:46.035Z,3.74
2019-05-13T17:05:16.248Z,3.15
2019-05-13T17:07:46.333Z,6.05
2019-05-13T17:10:16.526Z,2.83
2019-05-13T17:12:46.576Z,4.90
2019-05-13T17:15:16.872Z,4.33
2019-05-13T17:17:47.060Z,2.42
2019-05-13T17:20:17.286Z,6.17
2019-05-13T17:22:47.218Z,6.75
2019-05-13T17:25:17.542Z,7.03
2019-05-13T17:27:47.596Z,5.97
2019-05-13T17:30:18.167Z,6.12
2019-05-13T17:32:48.526Z,5.42
2019-05-13T17:35:18.254Z,4.78
2019-05-13T17:37:48.157Z,3.90
2019-05-13T17:40:18.424Z,3.45
2019-05-13T17:42:48.381Z,5.53
2019-05-13T17:45:18.630Z,5.33
2019-05-13T17:47:48.470Z,5.50
2019-05-13T17:50:18.672Z,4.50
2019-05-13T17:52:48.463Z,5.85
2019-05-13T17:55:18.557Z,4.97
2019-05-13T17:57:48.479Z,4.22
2019-05-13T18:00:21.617Z,7.92
2019-05-13T18:02:51.421Z,4.47
2019-05-13T18:05:22.574Z,6.28
2019-05-13T18:07:51.909Z,6.40
2019-05-13T18:10:22.588Z,5.80
2019-05-13T18:15:22.186Z,5.92
2019-05-13T18:17:52.597Z,5.53
2019-05-13T18:20:21.935Z,10.28
2019-05-13T18:22:52.322Z,3.62
2019-05-13T18:25:22.367Z,4.80
2019-05-13T18:27:52.903Z,4.42
2019-05-13T18:30:22.213Z,7.60
2019-05-13T18:32:51.844Z,9.88
2019-05-13T18:35:22.036Z,6.07
2019-05-13T18:37:51.463Z,10.20
2019-05-13T18:40:21.912Z,6.25
2019-05-13T18:42:51.559Z,9.10
2019-05-13T18:45:21.998Z,14.25
2019-05-13T18:47:51.474Z,6.17
2019-05-13T18:50:21.994Z,4.40
2019-05-13T18:52:52.503Z,4.67
2019-05-13T18:55:21.891Z,4.33
2019-05-13T18:57:51.869Z,3.58
2019-05-13T19:00:21.739Z,4.42
2019-05-13T19:02:51.152Z,4.40
2019-05-13T19:05:21.265Z,2.67
2019-05-13T19:07:51.849Z,5.40
2019-05-13T19:10:22.196Z,10.53
2019-05-13T19:12:51.684Z,6.67
2019-05-13T19:15:21.320Z,3.98
2019-05-13T19:17:52.068Z,6.25
2019-05-13T19:20:22.043Z,7.25
2019-05-13T19:22:51.893Z,3.67
2019-05-13T19:25:21.296Z,6.03
2019-05-13T19:27:51.707Z,5.50
2019-05-13T19:30:21.334Z,4.93
2019-05-13T19:32:52.046Z,6.45
2019-05-13T19:35:21.838Z,8.00
2019-05-13T19:37:51.705Z,5.60
2019-05-13T19:40:22.088Z,5.58
2019-05-13T19:42:51.524Z,5.57
2019-05-13T19:45:21.771Z,6.62
2019-05-13T19:47:51.854Z,5.10
2019-05-13T19:52:53.395Z,4.50
2019-05-13T19:55:22.717Z,8.38
2019-05-13T19:57:52.032Z,12.60
2019-05-13T20:00:22.174Z,12.70
2019-05-13T20:02:51.476Z,4.77
2019-05-13T20:05:23.053Z,8.55
2019-05-13T20:07:52.312Z,6.97
2019-05-13T20:10:22.839Z,3.67
2019-05-13T20:12:52.156Z,7.10
2019-05-13T20:15:22.119Z,7.05
2019-05-13T20:17:52.137Z,5.53
2019-05-13T20:20:21.487Z,4.77
2019-05-13T20:22:51.776Z,4.25
2019-05-13T20:25:21.751Z,6.20
2019-05-13T20:27:51.611Z,7.53
2019-05-13T20:30:22.077Z,4.50
2019-05-13T20:32:51.687Z,5.55
2019-05-13T20:35:21.907Z,4.90
2019-05-13T20:37:51.652Z,6.65
2019-05-13T20:40:22.212Z,3.83
2019-05-13T20:42:51.710Z,7.95
2019-05-13T20:45:22.404Z,2.85
2019-05-13T20:47:51.918Z,3.08
2019-05-13T20:50:22.190Z,5.47
2019-05-13T20:52:51.761Z,6.65
2019-05-13T20:55:22.048Z,3.77
2019-05-13T20:57:53.082Z,5.80
2019-05-13T21:00:22.717Z,7.55
2019-05-13T21:02:52.052Z,6.45
2019-05-13T21:05:21.955Z,3.80
2019-05-13T21:07:51.650Z,5.10
2019-05-13T21:12:51.447Z,4.60
2019-05-13T21:15:20.910Z,4.03
2019-05-13T21:17:51.589Z,5.70
2019-05-13T21:20:25.073Z,3.77
2019-05-13T21:22:52.043Z,7.78
2019-05-13T21:25:21.387Z,3.45
2019-05-13T21:27:51.493Z,5.87
2019-05-13T21:30:22.351Z,8.30
2019-05-13T21:32:51.872Z,8.98
2019-05-13T21:35:21.370Z,12.00
2019-05-13T21:37:51.320Z,7.33
2019-05-13T21:40:21.803Z,18.66
2019-05-13T21:42:52.666Z,11.18
2019-05-13T21:45:22.234Z,11.30
2019-05-13T21:47:51.825Z,8.80
2019-05-13T21:50:33.258Z,12.00
2019-05-13T21:52:53.034Z,9.45
2019-05-13T21:55:22.315Z,8.60
2019-05-13T21:57:53.058Z,9.65
2019-05-13T22:00:26.255Z,8.43
2019-05-13T22:02:57.221Z,8.33
2019-05-13T22:05:26.538Z,13.53
2019-05-13T22:07:55.830Z,13.05
2019-05-13T22:10:25.138Z,8.50
2019-05-13T22:12:54.433Z,7.15
2019-05-13T22:15:23.756Z,8.83
2019-05-13T22:17:53.621Z,5.37
2019-05-13T22:20:23.875Z,9.37
2019-05-13T22:22:54.024Z,6.97
2019-05-13T22:25:24.110Z,5.05
2019-05-13T22:27:54.334Z,5.37
2019-05-13T22:30:24.407Z,4.50
2019-05-13T22:32:54.614Z,6.35
2019-05-13T22:35:24.717Z,4.37
2019-05-13T22:37:54.936Z,3.70
2019-05-13T22:40:24.975Z,4.03
2019-05-13T22:42:56.812Z,3.20
2019-05-13T22:45:26.179Z,9.70
2019-05-13T22:47:55.649Z,5.78
2019-05-13T22:50:25.917Z,1.83
2019-05-13T22:52:55.987Z,2.48
2019-05-13T22:55:26.224Z,3.22
2019-05-13T22:57:56.231Z,3.58
2019-05-13T23:00:26.438Z,3.02
2019-05-13T23:02:56.655Z,5.20
2019-05-13T23:05:26.737Z,4.50
2019-05-13T23:07:56.950Z,3.33
2019-05-13T23:10:27.012Z,2.20
2019-05-13T23:12:57.267Z,2.52
2019-05-13T23:15:27.693Z,2.90
2019-05-13T23:17:57.695Z,5.03
2019-05-13T23:20:27.731Z,4.10
2019-05-13T23:22:57.934Z,4.60
2019-05-13T23:25:28.031Z,5.30
2019-05-13T23:27:58.311Z,4.90
2019-05-13T23:30:28.344Z,8.78
2019-05-13T23:32:58.555Z,3.27
2019-05-13T23:35:28.770Z,5.30
2019-05-13T23:37:58.965Z,7.37
2019-05-13T23:40:29.085Z,4.08
2019-05-13T23:42:59.278Z,8.88
2019-05-13T23:45:31.237Z,4.47
2019-05-13T23:48:01.591Z,3.70
2019-05-13T23:50:32.100Z,6.07
2019-05-13T23:53:01.536Z,6.23
2019-05-13T23:55:32.194Z,3.08
2019-05-13T23:58:01.884Z,6.60
